createdAt,value
2019-04-14T00:01:21.639Z,21.63
2019-04-14T00:03:54.589Z,20.97
2019-04-14T00:06:22.967Z,22.57
2019-04-14T00:08:52.220Z,21.53
2019-04-14T00:11:21.243Z,20.73
2019-04-14T00:13:50.214Z,21.03
2019-04-14T00:16:18.607Z,22.30
2019-04-14T00:18:47.062Z,22.07
2019-04-14T00:21:15.346Z,21.50
2019-04-14T00:23:43.649Z,21.53
2019-04-14T00:26:27.105Z,21.53
2019-04-14T00:28:55.695Z,21.60
2019-04-14T00:31:24.052Z,21.03
2019-04-14T00:33:54.278Z,21.87
2019-04-14T00:36:24.333Z,21.07
2019-04-14T00:38:54.265Z,21.33
2019-04-14T00:41:43.362Z,22.77
2019-04-14T00:44:05.744Z,22.70
2019-04-14T00:46:51.706Z,20.70
2019-04-14T00:49:20.138Z,21.70
2019-04-14T00:51:48.634Z,20.87
2019-04-14T00:54:17.488Z,22.20
2019-04-14T00:56:45.757Z,20.77
2019-04-14T00:59:14.056Z,21.73
2019-04-14T01:01:42.330Z,22.10
2019-04-14T01:04:10.702Z,21.90
2019-04-14T01:06:39.001Z,21.23
2019-04-14T01:09:09.139Z,21.13
2019-04-14T01:11:37.849Z,20.03
2019-04-14T01:14:06.194Z,21.83
2019-04-14T01:16:34.801Z,21.80
2019-04-14T01:19:03.117Z,24.47
2019-04-14T01:21:31.394Z,23.00
2019-04-14T01:24:00.950Z,22.50
2019-04-14T01:26:29.363Z,23.27
2019-04-14T01:28:57.711Z,22.30
2019-04-14T01:31:27.295Z,23.13
2019-04-14T01:33:55.775Z,23.20
2019-04-14T01:36:24.056Z,21.67
2019-04-14T01:38:53.628Z,23.33
2019-04-14T01:41:22.052Z,22.97
2019-04-14T01:43:51.682Z,22.47
2019-04-14T01:46:24.693Z,22.73
2019-04-14T01:48:50.138Z,23.37
2019-04-14T01:51:20.295Z,23.53
2019-04-14T01:53:51.020Z,22.83
2019-04-14T01:56:21.093Z,23.70
2019-04-14T01:58:51.307Z,23.40
2019-04-14T02:01:21.740Z,22.93
2019-04-14T02:03:50.059Z,23.10
2019-04-14T02:06:18.354Z,23.00
2019-04-14T02:08:47.714Z,22.93
2019-04-14T02:11:16.229Z,22.77
2019-04-14T02:13:44.516Z,23.23
2019-04-14T02:16:23.751Z,22.80
2019-04-14T02:18:42.968Z,23.97
2019-04-14T02:21:11.253Z,22.67
2019-04-14T02:23:39.527Z,22.13
2019-04-14T02:26:08.996Z,23.40
2019-04-14T02:28:37.608Z,24.03
2019-04-14T02:31:21.429Z,23.43
2019-04-14T02:33:59.028Z,23.13
2019-04-14T02:36:46.247Z,23.67
2019-04-14T02:39:10.332Z,22.27
2019-04-14T02:41:38.275Z,22.13
2019-04-14T02:44:09.785Z,21.43
2019-04-14T02:46:41.983Z,22.80
2019-04-14T02:54:07.171Z,22.53
2019-04-14T03:01:58.078Z,23.10
2019-04-14T03:03:55.970Z,22.70
2019-04-14T03:06:50.638Z,22.73
2019-04-14T03:09:12.994Z,23.40
2019-04-14T03:11:32.632Z,22.77
2019-04-14T03:16:51.982Z,22.93
2019-04-14T03:19:29.916Z,22.10
2019-04-14T03:22:18.378Z,22.43
2019-04-14T03:24:37.423Z,24.10
2019-04-14T03:27:24.793Z,23.97
2019-04-14T03:29:52.032Z,23.03
2019-04-14T03:32:39.069Z,24.07
2019-04-14T03:35:13.194Z,25.23
2019-04-14T03:37:39.235Z,23.73
2019-04-14T03:39:52.023Z,23.57
2019-04-14T03:42:35.866Z,23.93
2019-04-14T03:44:52.128Z,25.20
2019-04-14T03:47:22.057Z,24.50
2019-04-14T03:52:23.984Z,25.77
2019-04-14T03:54:48.067Z,26.23
2019-04-14T03:56:55.705Z,25.20
2019-04-14T03:59:24.298Z,25.77
2019-04-14T04:01:52.661Z,24.80
2019-04-14T04:04:21.063Z,26.30
2019-04-14T04:06:49.487Z,25.37
2019-04-14T04:09:19.258Z,25.50
2019-04-14T04:11:47.676Z,26.33
2019-04-14T04:14:16.004Z,25.83
2019-04-14T04:16:46.215Z,26.80
2019-04-14T04:19:18.197Z,25.53
2019-04-14T04:21:55.041Z,26.77
2019-04-14T04:24:35.019Z,26.57
2019-04-14T04:27:22.186Z,24.80
2019-04-14T04:29:54.955Z,24.87
2019-04-14T04:32:25.404Z,25.63
2019-04-14T04:35:04.396Z,25.97
2019-04-14T04:37:34.454Z,25.77
2019-04-14T04:40:05.058Z,26.40
2019-04-14T04:42:33.367Z,24.83
2019-04-14T04:45:01.855Z,26.00
2019-04-14T04:47:30.206Z,25.53
2019-04-14T04:49:58.505Z,26.00
2019-04-14T04:52:27.947Z,27.07
2019-04-14T04:54:56.488Z,25.10
2019-04-14T04:57:24.807Z,26.63
2019-04-14T04:59:53.946Z,30.27
2019-04-14T05:02:22.364Z,29.37
2019-04-14T05:04:50.677Z,28.53
2019-04-14T05:07:18.939Z,29.73
2019-04-14T05:10:05.257Z,28.07
2019-04-14T05:12:48.074Z,28.73
2019-04-14T05:15:35.891Z,28.20
2019-04-14T05:18:04.966Z,28.70
2019-04-14T05:20:33.522Z,30.37
2019-04-14T05:23:01.954Z,30.83
2019-04-14T05:25:30.235Z,31.07
2019-04-14T05:27:58.517Z,31.20
2019-04-14T05:30:26.819Z,29.57
2019-04-14T05:32:55.098Z,30.27
2019-04-14T05:35:23.398Z,29.67
2019-04-14T05:37:52.916Z,29.30
2019-04-14T05:40:21.243Z,29.93
2019-04-14T05:42:49.549Z,29.20
2019-04-14T05:45:17.831Z,30.17
2019-04-14T05:47:46.116Z,29.63
2019-04-14T05:50:14.426Z,28.13
2019-04-14T05:52:42.701Z,30.03
2019-04-14T05:55:11.284Z,28.57
2019-04-14T05:57:39.626Z,29.30
2019-04-14T06:00:10.334Z,30.30
2019-04-14T06:02:39.949Z,30.73
2019-04-14T06:05:09.114Z,27.87
2019-04-14T06:07:38.427Z,31.67
2019-04-14T06:10:06.995Z,28.83
2019-04-14T06:12:35.271Z,28.53
2019-04-14T06:15:04.805Z,32.50
2019-04-14T06:17:33.129Z,28.67
2019-04-14T06:20:01.389Z,28.77
2019-04-14T06:22:29.667Z,29.20
2019-04-14T06:24:57.999Z,28.20
2019-04-14T06:27:26.287Z,27.83
2019-04-14T06:29:56.286Z,28.60
2019-04-14T06:32:43.961Z,26.57
2019-04-14T06:35:19.611Z,28.47
2019-04-14T06:37:55.292Z,30.43
2019-04-14T06:40:25.218Z,27.70
2019-04-14T06:42:53.510Z,26.33
2019-04-14T06:45:21.803Z,26.17
2019-04-14T06:47:55.281Z,25.70
2019-04-14T06:50:23.556Z,25.57
2019-04-14T06:52:51.859Z,24.70
2019-04-14T06:55:20.144Z,23.13
2019-04-14T06:57:48.444Z,24.60
2019-04-14T07:00:16.736Z,24.20
2019-04-14T07:02:45.469Z,23.47
2019-04-14T07:05:18.714Z,23.07
2019-04-14T07:07:56.544Z,21.63
2019-04-14T07:10:17.114Z,23.23
2019-04-14T07:12:50.092Z,22.37
2019-04-14T07:15:18.369Z,22.60
2019-04-14T07:17:46.695Z,21.10
2019-04-14T07:20:14.951Z,21.33
2019-04-14T07:22:43.268Z,22.17
2019-04-14T07:25:11.545Z,20.77
2019-04-14T07:27:39.824Z,20.70
2019-04-14T07:30:28.198Z,20.23
2019-04-14T07:33:06.863Z,21.30
2019-04-14T07:35:54.887Z,22.23
2019-04-14T07:38:30.626Z,19.40
2019-04-14T07:41:00.550Z,18.93
2019-04-14T07:43:36.029Z,20.20
2019-04-14T07:46:08.373Z,19.23
2019-04-14T07:48:40.995Z,19.53
2019-04-14T07:51:22.701Z,18.83
2019-04-14T07:53:55.311Z,18.73
2019-04-14T07:56:37.366Z,18.40
2019-04-14T07:59:07.977Z,18.37
2019-04-14T08:01:37.991Z,18.67
2019-04-14T08:04:07.930Z,18.73
2019-04-14T08:06:38.391Z,18.93
2019-04-14T08:09:07.137Z,17.37
2019-04-14T08:11:35.488Z,18.43
2019-04-14T08:14:03.782Z,18.00
2019-04-14T08:16:32.079Z,19.03
2019-04-14T08:19:00.359Z,19.37
2019-04-14T08:21:28.729Z,18.33
2019-04-14T08:23:57.066Z,18.30
2019-04-14T08:26:25.318Z,17.87
2019-04-14T08:28:53.606Z,17.23
2019-04-14T08:31:21.896Z,17.00
2019-04-14T08:33:50.183Z,16.70
2019-04-14T08:36:18.485Z,17.13
2019-04-14T08:38:46.767Z,17.47
2019-04-14T08:41:15.073Z,17.20
2019-04-14T08:43:54.235Z,17.33
2019-04-14T08:46:40.320Z,16.57
2019-04-14T08:49:16.219Z,17.10
2019-04-14T08:52:02.151Z,28.60
2019-04-14T08:54:50.071Z,15.17
2019-04-14T08:57:28.527Z,16.27
2019-04-14T09:00:06.984Z,16.37
2019-04-14T09:02:37.017Z,16.00
2019-04-14T09:05:10.636Z,16.67
2019-04-14T09:07:43.748Z,15.93
2019-04-14T09:10:16.337Z,16.50
2019-04-14T09:12:46.533Z,16.90
2019-04-14T09:15:14.827Z,16.30
2019-04-14T09:17:43.170Z,17.00
2019-04-14T09:20:11.455Z,16.87
2019-04-14T09:22:39.733Z,17.00
2019-04-14T09:25:08.102Z,15.00
2019-04-14T09:27:36.390Z,15.50
2019-04-14T09:30:09.241Z,15.97
2019-04-14T09:32:37.588Z,15.67
2019-04-14T09:35:06.360Z,16.20
2019-04-14T09:37:34.638Z,15.30
2019-04-14T09:40:02.942Z,16.77
2019-04-14T09:42:31.238Z,15.13
2019-04-14T09:44:59.535Z,14.93
2019-04-14T09:47:27.833Z,15.23
2019-04-14T09:49:56.131Z,15.40
2019-04-14T09:52:24.483Z,14.17
2019-04-14T09:54:52.814Z,14.30
2019-04-14T09:57:21.097Z,14.33
2019-04-14T09:59:49.393Z,13.87
2019-04-14T10:02:17.675Z,13.93
2019-04-14T10:04:45.967Z,14.00
2019-04-14T10:07:14.273Z,14.30
2019-04-14T10:09:44.913Z,14.83
2019-04-14T10:12:13.219Z,14.20
2019-04-14T10:14:41.513Z,14.33
2019-04-14T10:17:09.806Z,13.90
2019-04-14T10:19:38.099Z,15.00
2019-04-14T10:22:06.417Z,13.90
2019-04-14T10:24:34.711Z,14.87
2019-04-14T10:27:03.035Z,13.50
2019-04-14T10:29:31.326Z,11.97
2019-04-14T10:31:59.638Z,13.90
2019-04-14T10:34:27.928Z,11.87
2019-04-14T10:36:56.234Z,13.33
2019-04-14T10:39:24.551Z,12.87
2019-04-14T10:41:52.855Z,12.30
2019-04-14T10:44:21.131Z,11.60
2019-04-14T10:46:49.432Z,11.63
2019-04-14T10:49:17.712Z,12.07
2019-04-14T10:51:46.018Z,10.23
2019-04-14T10:54:14.315Z,10.80
2019-04-14T10:56:42.620Z,11.33
2019-04-14T10:59:10.912Z,10.63
2019-04-14T11:01:39.200Z,10.10
2019-04-14T11:04:08.192Z,10.80
2019-04-14T11:06:38.310Z,10.77
2019-04-14T11:09:08.834Z,9.97
2019-04-14T11:11:37.463Z,11.10
2019-04-14T11:14:06.015Z,11.03
2019-04-14T11:16:34.297Z,11.20
2019-04-14T11:19:02.605Z,11.23
2019-04-14T11:21:41.938Z,11.77
2019-04-14T11:24:00.925Z,12.67
2019-04-14T11:26:29.225Z,10.90
2019-04-14T11:28:57.517Z,11.60
2019-04-14T11:31:36.039Z,11.17
2019-04-14T11:34:04.710Z,11.40
2019-04-14T11:36:37.357Z,11.37
2019-04-14T11:39:08.418Z,11.40
2019-04-14T11:41:36.795Z,11.07
2019-04-14T11:44:05.229Z,11.80
2019-04-14T11:46:33.515Z,11.03
2019-04-14T11:49:03.460Z,10.80
2019-04-14T11:51:31.744Z,10.40
2019-04-14T11:54:00.812Z,10.87
2019-04-14T11:56:29.103Z,10.03
2019-04-14T11:58:57.394Z,11.03
2019-04-14T12:01:43.471Z,9.73
2019-04-14T12:04:31.707Z,11.13
2019-04-14T12:07:07.800Z,10.00
2019-04-14T12:09:37.736Z,10.40
2019-04-14T12:12:07.680Z,10.40
2019-04-14T12:14:35.962Z,9.50
2019-04-14T12:17:04.268Z,9.70
2019-04-14T12:19:32.559Z,10.37
2019-04-14T12:22:08.251Z,10.03
2019-04-14T12:24:30.897Z,10.17
2019-04-14T12:26:59.199Z,10.07
2019-04-14T12:29:28.260Z,9.87
2019-04-14T12:31:57.459Z,9.87
2019-04-14T12:34:25.795Z,10.73
2019-04-14T12:36:54.081Z,9.30
2019-04-14T12:39:24.011Z,9.83
2019-04-14T12:42:10.497Z,10.20
2019-04-14T12:44:45.916Z,8.90
2019-04-14T12:47:15.859Z,10.03
2019-04-14T12:49:45.785Z,8.97
2019-04-14T12:52:21.417Z,9.90
2019-04-14T12:54:48.108Z,10.20
2019-04-14T12:57:18.040Z,9.80
2019-04-14T12:59:46.320Z,9.83
2019-04-14T13:02:16.267Z,10.00
2019-04-14T13:04:44.564Z,10.33
2019-04-14T13:07:12.850Z,10.80
2019-04-14T13:09:41.147Z,10.10
2019-04-14T13:12:10.436Z,11.43
2019-04-14T13:14:38.923Z,10.87
2019-04-14T13:17:07.211Z,11.77
2019-04-14T13:19:35.510Z,10.47
2019-04-14T13:22:03.863Z,10.40
2019-04-14T13:24:32.176Z,11.87
2019-04-14T13:27:00.458Z,11.40
2019-04-14T13:29:28.756Z,11.43
2019-04-14T13:31:57.064Z,11.10
2019-04-14T13:34:25.370Z,10.73
2019-04-14T13:36:53.661Z,11.20
2019-04-14T13:39:23.614Z,10.83
2019-04-14T13:41:51.906Z,10.83
2019-04-14T13:44:20.205Z,11.37
2019-04-14T13:46:48.560Z,11.60
2019-04-14T13:49:16.910Z,11.20
2019-04-14T13:51:45.165Z,11.13
2019-04-14T13:54:13.470Z,10.80
2019-04-14T13:56:41.826Z,11.47
2019-04-14T13:59:10.135Z,11.10
2019-04-14T14:01:38.426Z,11.17
2019-04-14T14:04:06.813Z,11.30
2019-04-14T14:06:35.094Z,11.23
2019-04-14T14:09:05.019Z,11.63
2019-04-14T14:11:37.579Z,10.90
2019-04-14T14:14:09.997Z,11.23
2019-04-14T14:16:45.424Z,11.17
2019-04-14T14:19:21.120Z,10.97
2019-04-14T14:21:56.479Z,10.40
2019-04-14T14:24:35.466Z,11.30
2019-04-14T14:27:05.024Z,12.20
2019-04-14T14:29:33.466Z,11.23
2019-04-14T14:32:03.371Z,11.17
2019-04-14T14:34:31.663Z,10.73
2019-04-14T14:36:59.979Z,10.70
2019-04-14T14:39:28.253Z,11.23
2019-04-14T14:41:56.625Z,10.73
2019-04-14T14:44:26.818Z,10.97
2019-04-14T14:46:56.758Z,11.13
2019-04-14T14:49:26.690Z,10.27
2019-04-14T14:51:56.634Z,11.63
2019-04-14T14:54:24.935Z,11.83
2019-04-14T14:56:53.266Z,11.80
2019-04-14T14:59:21.539Z,12.17
2019-04-14T15:01:49.849Z,12.13
2019-04-14T15:04:19.182Z,12.20
2019-04-14T15:06:47.621Z,11.97
2019-04-14T15:09:15.907Z,11.93
2019-04-14T15:11:44.223Z,11.67
2019-04-14T15:14:12.505Z,12.10
2019-04-14T15:16:40.884Z,12.03
2019-04-14T15:19:09.169Z,11.40
2019-04-14T15:21:37.501Z,11.53
2019-04-14T15:24:05.862Z,11.17
2019-04-14T15:26:34.150Z,12.40
2019-04-14T15:29:02.459Z,11.27
2019-04-14T15:31:30.753Z,11.37
2019-04-14T15:33:59.066Z,11.67
2019-04-14T15:36:27.337Z,11.40
2019-04-14T15:38:55.647Z,11.53
2019-04-14T15:41:24.002Z,11.73
2019-04-14T15:43:52.301Z,11.63
2019-04-14T15:46:20.588Z,11.47
2019-04-14T15:48:48.897Z,11.53
2019-04-14T15:51:17.185Z,11.57
2019-04-14T15:53:45.483Z,10.90
2019-04-14T15:56:15.408Z,11.33
2019-04-14T15:58:45.340Z,10.73
2019-04-14T16:01:17.724Z,11.17
2019-04-14T16:03:53.614Z,10.90
2019-04-14T16:06:29.748Z,11.00
2019-04-14T16:09:12.124Z,11.30
2019-04-14T16:11:44.683Z,11.47
2019-04-14T16:14:26.557Z,11.13
2019-04-14T16:17:13.074Z,11.80
2019-04-14T16:19:54.903Z,11.80
2019-04-14T16:22:23.191Z,11.03
2019-04-14T16:24:51.736Z,11.90
2019-04-14T16:27:36.735Z,11.27
2019-04-14T16:30:10.422Z,11.83
2019-04-14T16:32:52.128Z,10.70
2019-04-14T16:35:22.086Z,11.33
2019-04-14T16:37:50.350Z,11.73
2019-04-14T16:40:18.675Z,11.23
2019-04-14T16:42:47.006Z,10.97
2019-04-14T16:45:15.335Z,11.17
2019-04-14T16:50:26.126Z,10.53
2019-04-14T16:53:01.787Z,11.33
2019-04-14T16:55:34.390Z,12.30
2019-04-14T16:58:07.040Z,11.97
2019-04-14T17:00:37.375Z,11.33
2019-04-14T17:03:05.643Z,11.07
2019-04-14T17:05:34.985Z,11.30
2019-04-14T17:08:03.511Z,10.70
2019-04-14T17:10:31.799Z,11.60
2019-04-14T17:13:00.098Z,11.03
2019-04-14T17:15:30.054Z,10.97
2019-04-14T17:18:02.523Z,11.30
2019-04-14T17:20:35.438Z,11.30
2019-04-14T17:23:21.254Z,11.60
2019-04-14T17:25:53.708Z,11.10
2019-04-14T17:28:29.259Z,10.83
2019-04-14T17:30:59.182Z,11.40
2019-04-14T17:33:29.127Z,10.87
2019-04-14T17:35:59.087Z,10.70
2019-04-14T17:38:34.787Z,10.87
2019-04-14T17:41:07.553Z,10.23
2019-04-14T17:43:37.503Z,9.90
2019-04-14T17:46:07.507Z,9.30
2019-04-14T17:48:53.901Z,10.20
2019-04-14T17:51:32.357Z,9.30
2019-04-14T17:54:02.307Z,10.00
2019-04-14T17:56:38.162Z,9.60
2019-04-14T17:59:08.103Z,9.57
2019-04-14T18:01:38.303Z,9.90
2019-04-14T18:04:14.110Z,11.23
2019-04-14T18:06:46.832Z,10.87
2019-04-14T18:09:29.302Z,11.33
2019-04-14T18:12:05.035Z,11.53
2019-04-14T18:14:37.779Z,11.53
2019-04-14T18:17:10.590Z,10.83
2019-04-14T18:19:56.732Z,11.33
2019-04-14T18:22:25.109Z,11.43
2019-04-14T18:24:53.408Z,11.70
2019-04-14T18:27:21.778Z,11.37
2019-04-14T18:30:00.467Z,11.37
2019-04-14T18:32:48.676Z,11.67
2019-04-14T18:35:27.721Z,10.70
2019-04-14T18:38:00.618Z,11.27
2019-04-14T18:40:46.849Z,12.00
2019-04-14T18:43:28.367Z,11.00
2019-04-14T18:45:58.306Z,10.50
2019-04-14T18:48:31.133Z,10.80
2019-04-14T18:51:04.122Z,10.83
2019-04-14T18:53:36.799Z,11.90
2019-04-14T18:56:09.473Z,10.40
2019-04-14T18:58:42.369Z,10.80
2019-04-14T19:01:14.754Z,11.57
2019-04-14T19:03:43.045Z,11.23
2019-04-14T19:06:11.346Z,11.73
2019-04-14T19:08:39.628Z,11.93
2019-04-14T19:11:15.236Z,12.47
2019-04-14T19:13:45.218Z,11.47
2019-04-14T19:16:15.135Z,11.73
2019-04-14T19:18:56.594Z,12.20
2019-04-14T19:21:26.518Z,10.97
2019-04-14T19:23:54.833Z,11.37
2019-04-14T19:26:23.122Z,11.67
2019-04-14T19:28:51.418Z,11.40
2019-04-14T19:31:19.695Z,10.93
2019-04-14T19:33:47.996Z,11.03
2019-04-14T19:36:16.278Z,10.70
2019-04-14T19:38:46.652Z,10.73
2019-04-14T19:41:14.935Z,9.73
2019-04-14T19:43:43.239Z,10.10
2019-04-14T19:46:11.517Z,9.40
2019-04-14T19:48:39.810Z,9.30
2019-04-14T19:51:10.016Z,9.30
2019-04-14T19:53:38.279Z,8.90
2019-04-14T19:56:06.572Z,9.13
2019-04-14T19:58:34.864Z,9.70
2019-04-14T20:01:03.553Z,8.77
2019-04-14T20:03:31.831Z,9.43
2019-04-14T20:06:00.132Z,9.07
2019-04-14T20:08:28.414Z,9.50
2019-04-14T20:10:56.873Z,9.70
2019-04-14T20:13:26.733Z,9.50
2019-04-14T20:16:08.223Z,9.30
2019-04-14T20:18:38.135Z,9.27
2019-04-14T20:21:24.555Z,9.43
2019-04-14T20:24:00.417Z,9.67
2019-04-14T20:26:42.390Z,9.33
2019-04-14T20:29:12.320Z,10.60
2019-04-14T20:31:42.261Z,10.27
2019-04-14T20:34:10.542Z,9.93
2019-04-14T20:36:38.838Z,10.00
2019-04-14T20:39:09.702Z,10.03
2019-04-14T20:41:37.995Z,9.87
2019-04-14T20:44:06.282Z,9.87
2019-04-14T20:46:34.586Z,8.97
2019-04-14T20:49:02.853Z,10.03
2019-04-14T20:51:31.154Z,10.40
2019-04-14T20:53:59.437Z,9.20
2019-04-14T20:56:27.722Z,9.73
2019-04-14T20:58:56.021Z,10.20
2019-04-14T21:01:25.933Z,9.87
2019-04-14T21:03:58.540Z,9.80
2019-04-14T21:06:44.708Z,10.23
2019-04-14T21:09:14.693Z,9.57
2019-04-14T21:11:47.597Z,9.37
2019-04-14T21:14:17.515Z,9.53
2019-04-14T21:16:59.480Z,9.87
2019-04-14T21:19:41.198Z,9.43
2019-04-14T21:22:11.146Z,9.43
2019-04-14T21:24:46.922Z,10.07
2019-04-14T21:27:16.859Z,8.80
2019-04-14T21:29:46.785Z,9.73
2019-04-14T21:32:16.708Z,9.90
2019-04-14T21:35:02.962Z,9.27
2019-04-14T21:37:44.893Z,10.23
2019-04-14T21:40:23.772Z,9.23
2019-04-14T21:42:52.061Z,9.63
2019-04-14T21:45:20.343Z,8.93
2019-04-14T21:47:48.615Z,9.27
2019-04-14T21:50:16.970Z,8.67
2019-04-14T21:52:49.359Z,8.77
2019-04-14T21:55:16.714Z,8.10
2019-04-14T21:57:49.317Z,9.20
2019-04-14T22:00:38.677Z,9.47
2019-04-14T22:03:25.009Z,8.53
2019-04-14T22:06:06.984Z,8.67
2019-04-14T22:08:46.054Z,9.70
2019-04-14T22:11:16.035Z,10.03
2019-04-14T22:13:44.361Z,9.90
2019-04-14T22:16:12.686Z,10.37
2019-04-14T22:18:41.025Z,9.43
2019-04-14T22:21:09.399Z,9.23
2019-04-14T22:23:38.162Z,9.03
2019-04-14T22:26:06.845Z,9.43
2019-04-14T22:28:35.181Z,8.67
2019-04-14T22:31:03.593Z,8.80
2019-04-14T22:33:31.893Z,10.03
2019-04-14T22:36:00.356Z,9.30
2019-04-14T22:38:28.624Z,8.87
2019-04-14T22:40:56.907Z,8.43
2019-04-14T22:43:25.182Z,9.43
2019-04-14T22:45:53.494Z,8.23
2019-04-14T22:48:21.773Z,9.23
2019-04-14T22:50:50.341Z,9.20
2019-04-14T22:53:18.637Z,8.73
2019-04-14T22:55:46.934Z,9.27
2019-04-14T22:58:15.209Z,8.67
2019-04-14T23:00:53.642Z,9.00
2019-04-14T23:03:23.559Z,9.00
2019-04-14T23:06:11.675Z,8.67
2019-04-14T23:08:47.284Z,8.20
2019-04-14T23:11:17.212Z,8.83
2019-04-14T23:13:59.264Z,8.40
2019-04-14T23:16:35.219Z,8.13
2019-04-14T23:19:05.137Z,9.33
2019-04-14T23:21:53.291Z,9.13
2019-04-14T23:24:23.139Z,8.93
2019-04-14T23:26:53.056Z,9.13
2019-04-14T23:29:21.496Z,7.73
2019-04-14T23:31:49.781Z,8.43
2019-04-14T23:34:18.829Z,8.87
2019-04-14T23:36:47.113Z,8.13
2019-04-14T23:39:15.424Z,8.20
2019-04-14T23:41:43.714Z,8.50
2019-04-14T23:44:12.048Z,8.43
2019-04-14T23:46:40.364Z,8.10
2019-04-14T23:49:08.632Z,8.07
2019-04-14T23:51:36.931Z,6.90
2019-04-14T23:54:05.203Z,7.33
2019-04-14T23:56:33.475Z,7.43
2019-04-14T23:59:01.883Z,7.60
